sensor_id;sensor_type;location;lat;lon;timestamp;P1;durP1;ratioP1;P2;durP2;ratioP2
62149;SDS011;48134;53.586;10.610;2024-02-15T00:00:32;17.67;;;7.22;;
62149;SDS011;48134;53.586;10.610;2024-02-15T00:03:07;18.20;;;7.60;;
62149;SDS011;48134;53.586;10.610;2024-02-15T00:05:49;17.45;;;7.30;;
62149;SDS011;48134;53.586;10.610;2024-02-15T00:08:22;18.98;;;7.70;;
62149;SDS011;48134;53.586;10.610;2024-02-15T00:10:53;17.95;;;7.63;;
62149;SDS011;48134;53.586;10.610;2024-02-15T00:13:26;19.48;;;8.40;;
62149;SDS011;48134;53.586;10.610;2024-02-15T00:16:00;19.98;;;7.93;;
62149;SDS011;48134;53.586;10.610;2024-02-15T00:18:35;18.33;;;8.27;;
62149;SDS011;48134;53.586;10.610;2024-02-15T00:21:08;18.30;;;8.18;;
62149;SDS011;48134;53.586;10.610;2024-02-15T00:23:42;22.97;;;8.40;;
62149;SDS011;48134;53.586;10.610;2024-02-15T00:26:10;21.02;;;8.50;;
62149;SDS011;48134;53.586;10.610;2024-02-15T00:28:44;19.50;;;7.63;;
62149;SDS011;48134;53.586;10.610;2024-02-15T00:31:17;18.20;;;7.93;;
62149;SDS011;48134;53.586;10.610;2024-02-15T00:33:47;19.80;;;7.65;;
62149;SDS011;48134;53.586;10.610;2024-02-15T00:36:15;19.23;;;7.73;;
62149;SDS011;48134;53.586;10.610;2024-02-15T00:38:48;17.77;;;7.18;;
62149;SDS011;48134;53.586;10.610;2024-02-15T00:41:16;19.15;;;8.07;;
62149;SDS011;48134;53.586;10.610;2024-02-15T00:43:50;19.67;;;8.00;;
62149;SDS011;48134;53.586;10.610;2024-02-15T00:46:19;18.73;;;8.15;;
62149;SDS011;48134;53.586;10.610;2024-02-15T00:48:53;20.33;;;8.37;;
62149;SDS011;48134;53.586;10.610;2024-02-15T00:51:27;20.55;;;8.60;;
62149;SDS011;48134;53.586;10.610;2024-02-15T00:54:00;22.37;;;9.27;;
62149;SDS011;48134;53.586;10.610;2024-02-15T00:56:28;22.00;;;9.60;;
62149;SDS011;48134;53.586;10.610;2024-02-15T00:59:03;23.98;;;9.57;;
62149;SDS011;48134;53.586;10.610;2024-02-15T01:01:37;25.00;;;9.55;;
62149;SDS011;48134;53.586;10.610;2024-02-15T01:04:07;23.37;;;10.10;;
62149;SDS011;48134;53.586;10.610;2024-02-15T01:06:40;24.90;;;10.10;;
62149;SDS011;48134;53.586;10.610;2024-02-15T01:09:14;26.20;;;10.20;;
62149;SDS011;48134;53.586;10.610;2024-02-15T01:11:47;26.40;;;10.75;;
62149;SDS011;48134;53.586;10.610;2024-02-15T01:14:20;28.20;;;11.02;;
62149;SDS011;48134;53.586;10.610;2024-02-15T01:16:48;30.80;;;11.35;;
62149;SDS011;48134;53.586;10.610;2024-02-15T01:19:23;28.05;;;11.20;;
62149;SDS011;48134;53.586;10.610;2024-02-15T01:21:56;27.20;;;10.82;;
62149;SDS011;48134;53.586;10.610;2024-02-15T01:24:31;27.90;;;10.73;;
62149;SDS011;48134;53.586;10.610;2024-02-15T01:26:59;27.80;;;10.30;;
62149;SDS011;48134;53.586;10.610;2024-02-15T01:29:33;24.75;;;10.45;;
62149;SDS011;48134;53.586;10.610;2024-02-15T01:32:01;25.90;;;10.10;;
62149;SDS011;48134;53.586;10.610;2024-02-15T01:34:36;26.60;;;10.13;;
62149;SDS011;48134;53.586;10.610;2024-02-15T01:37:09;24.70;;;10.10;;
62149;SDS011;48134;53.586;10.610;2024-02-15T01:39:42;24.63;;;9.80;;
62149;SDS011;48134;53.586;10.610;2024-02-15T01:42:16;20.98;;;8.95;;
62149;SDS011;48134;53.586;10.610;2024-02-15T01:44:49;21.63;;;8.48;;
62149;SDS011;48134;53.586;10.610;2024-02-15T01:47:24;21.45;;;8.98;;
62149;SDS011;48134;53.586;10.610;2024-02-15T01:49:59;19.10;;;7.95;;
62149;SDS011;48134;53.586;10.610;2024-02-15T01:52:32;21.33;;;8.40;;
62149;SDS011;48134;53.586;10.610;2024-02-15T01:55:02;19.77;;;8.10;;
62149;SDS011;48134;53.586;10.610;2024-02-15T01:57:40;18.23;;;7.57;;
62149;SDS011;48134;53.586;10.610;2024-02-15T02:00:12;19.92;;;7.70;;
62149;SDS011;48134;53.586;10.610;2024-02-15T02:02:46;18.73;;;7.57;;
62149;SDS011;48134;53.586;10.610;2024-02-15T02:05:16;16.98;;;7.20;;
62149;SDS011;48134;53.586;10.610;2024-02-15T02:07:49;18.00;;;7.40;;
62149;SDS011;48134;53.586;10.610;2024-02-15T02:10:22;17.40;;;7.40;;
62149;SDS011;48134;53.586;10.610;2024-02-15T02:12:51;16.98;;;7.00;;
62149;SDS011;48134;53.586;10.610;2024-02-15T02:15:19;22.00;;;8.77;;
62149;SDS011;48134;53.586;10.610;2024-02-15T02:17:52;22.15;;;9.30;;
62149;SDS011;48134;53.586;10.610;2024-02-15T02:20:27;23.02;;;9.32;;
62149;SDS011;48134;53.586;10.610;2024-02-15T02:23:02;25.00;;;9.68;;
62149;SDS011;48134;53.586;10.610;2024-02-15T02:25:36;24.92;;;9.82;;
62149;SDS011;48134;53.586;10.610;2024-02-15T02:28:05;26.05;;;9.73;;
62149;SDS011;48134;53.586;10.610;2024-02-15T02:30:34;24.63;;;9.65;;
62149;SDS011;48134;53.586;10.610;2024-02-15T02:33:10;27.77;;;9.85;;
62149;SDS011;48134;53.586;10.610;2024-02-15T02:35:49;24.67;;;10.20;;
62149;SDS011;48134;53.586;10.610;2024-02-15T02:38:18;23.63;;;9.88;;
62149;SDS011;48134;53.586;10.610;2024-02-15T02:40:52;25.05;;;9.65;;
62149;SDS011;48134;53.586;10.610;2024-02-15T02:43:26;23.15;;;9.70;;
62149;SDS011;48134;53.586;10.610;2024-02-15T02:45:54;22.42;;;9.80;;
62149;SDS011;48134;53.586;10.610;2024-02-15T02:48:27;22.42;;;9.77;;
62149;SDS011;48134;53.586;10.610;2024-02-15T02:51:00;26.20;;;9.97;;
62149;SDS011;48134;53.586;10.610;2024-02-15T02:53:34;29.67;;;11.05;;
62149;SDS011;48134;53.586;10.610;2024-02-15T02:56:08;25.40;;;10.50;;
62149;SDS011;48134;53.586;10.610;2024-02-15T02:58:42;27.45;;;10.73;;
62149;SDS011;48134;53.586;10.610;2024-02-15T03:01:15;24.13;;;10.40;;
62149;SDS011;48134;53.586;10.610;2024-02-15T03:03:49;29.15;;;10.50;;
62149;SDS011;48134;53.586;10.610;2024-02-15T03:06:23;27.50;;;10.23;;
62149;SDS011;48134;53.586;10.610;2024-02-15T03:08:52;27.80;;;9.73;;
62149;SDS011;48134;53.586;10.610;2024-02-15T03:11:27;25.20;;;9.95;;
62149;SDS011;48134;53.586;10.610;2024-02-15T03:13:55;29.52;;;10.48;;
62149;SDS011;48134;53.586;10.610;2024-02-15T03:16:30;28.85;;;11.10;;
62149;SDS011;48134;53.586;10.610;2024-02-15T03:19:03;29.97;;;12.10;;
62149;SDS011;48134;53.586;10.610;2024-02-15T03:21:31;26.90;;;11.40;;
62149;SDS011;48134;53.586;10.610;2024-02-15T03:23:59;32.47;;;12.32;;
62149;SDS011;48134;53.586;10.610;2024-02-15T03:26:34;31.40;;;11.77;;
62149;SDS011;48134;53.586;10.610;2024-02-15T03:29:09;33.15;;;12.05;;
62149;SDS011;48134;53.586;10.610;2024-02-15T03:31:38;36.65;;;12.18;;
62149;SDS011;48134;53.586;10.610;2024-02-15T03:34:11;31.60;;;11.77;;
62149;SDS011;48134;53.586;10.610;2024-02-15T03:36:46;32.17;;;11.80;;
62149;SDS011;48134;53.586;10.610;2024-02-15T03:39:23;29.10;;;10.98;;
62149;SDS011;48134;53.586;10.610;2024-02-15T03:41:58;29.55;;;11.10;;
62149;SDS011;48134;53.586;10.610;2024-02-15T03:44:31;27.20;;;10.45;;
62149;SDS011;48134;53.586;10.610;2024-02-15T03:47:04;26.40;;;10.45;;
62149;SDS011;48134;53.586;10.610;2024-02-15T03:49:38;29.85;;;10.88;;
62149;SDS011;48134;53.586;10.610;2024-02-15T03:52:11;23.98;;;9.93;;
62149;SDS011;48134;53.586;10.610;2024-02-15T03:54:44;22.30;;;8.25;;
62149;SDS011;48134;53.586;10.610;2024-02-15T03:57:19;21.17;;;8.07;;
62149;SDS011;48134;53.586;10.610;2024-02-15T03:59:47;21.70;;;8.52;;
62149;SDS011;48134;53.586;10.610;2024-02-15T04:02:22;22.13;;;9.03;;
62149;SDS011;48134;53.586;10.610;2024-02-15T04:04:58;19.90;;;8.20;;
62149;SDS011;48134;53.586;10.610;2024-02-15T04:07:31;21.92;;;8.38;;
62149;SDS011;48134;53.586;10.610;2024-02-15T04:10:04;20.73;;;8.35;;
62149;SDS011;48134;53.586;10.610;2024-02-15T04:12:41;22.63;;;8.50;;
62149;SDS011;48134;53.586;10.610;2024-02-15T04:15:15;23.05;;;8.63;;
62149;SDS011;48134;53.586;10.610;2024-02-15T04:17:48;23.10;;;8.50;;
62149;SDS011;48134;53.586;10.610;2024-02-15T04:20:27;23.60;;;8.50;;
62149;SDS011;48134;53.586;10.610;2024-02-15T04:22:55;20.13;;;7.75;;
62149;SDS011;48134;53.586;10.610;2024-02-15T04:25:26;24.65;;;8.18;;
62149;SDS011;48134;53.586;10.610;2024-02-15T04:28:01;20.67;;;7.85;;
62149;SDS011;48134;53.586;10.610;2024-02-15T04:30:35;19.85;;;7.57;;
62149;SDS011;48134;53.586;10.610;2024-02-15T04:33:10;20.73;;;7.60;;
62149;SDS011;48134;53.586;10.610;2024-02-15T04:35:39;22.70;;;7.57;;
62149;SDS011;48134;53.586;10.610;2024-02-15T04:38:12;17.85;;;6.85;;
62149;SDS011;48134;53.586;10.610;2024-02-15T04:40:45;18.95;;;7.25;;
62149;SDS011;48134;53.586;10.610;2024-02-15T04:43:20;17.60;;;7.00;;
62149;SDS011;48134;53.586;10.610;2024-02-15T04:45:54;17.95;;;7.05;;
62149;SDS011;48134;53.586;10.610;2024-02-15T04:48:27;20.10;;;7.50;;
62149;SDS011;48134;53.586;10.610;2024-02-15T04:50:56;22.90;;;7.80;;
62149;SDS011;48134;53.586;10.610;2024-02-15T04:53:31;23.47;;;8.57;;
62149;SDS011;48134;53.586;10.610;2024-02-15T04:56:04;25.58;;;9.35;;
62149;SDS011;48134;53.586;10.610;2024-02-15T04:58:44;26.88;;;9.00;;
62149;SDS011;48134;53.586;10.610;2024-02-15T05:01:19;27.20;;;9.57;;
62149;SDS011;48134;53.586;10.610;2024-02-15T05:03:47;25.90;;;9.65;;
62149;SDS011;48134;53.586;10.610;2024-02-15T05:06:15;29.40;;;9.93;;
62149;SDS011;48134;53.586;10.610;2024-02-15T05:08:49;27.70;;;10.15;;
62149;SDS011;48134;53.586;10.610;2024-02-15T05:11:22;30.35;;;10.48;;
62149;SDS011;48134;53.586;10.610;2024-02-15T05:13:57;27.70;;;10.65;;
62149;SDS011;48134;53.586;10.610;2024-02-15T05:16:26;28.87;;;10.97;;
62149;SDS011;48134;53.586;10.610;2024-02-15T05:18:59;27.10;;;10.20;;
62149;SDS011;48134;53.586;10.610;2024-02-15T05:21:28;28.52;;;11.05;;
62149;SDS011;48134;53.586;10.610;2024-02-15T05:24:02;30.70;;;11.20;;
62149;SDS011;48134;53.586;10.610;2024-02-15T05:26:35;28.80;;;10.73;;
62149;SDS011;48134;53.586;10.610;2024-02-15T05:29:10;31.05;;;11.10;;
62149;SDS011;48134;53.586;10.610;2024-02-15T05:31:38;31.98;;;11.00;;
62149;SDS011;48134;53.586;10.610;2024-02-15T05:34:12;35.17;;;11.77;;
62149;SDS011;48134;53.586;10.610;2024-02-15T05:36:45;31.55;;;11.32;;
62149;SDS011;48134;53.586;10.610;2024-02-15T05:39:19;29.35;;;10.90;;
62149;SDS011;48134;53.586;10.610;2024-02-15T05:41:49;30.57;;;11.17;;
62149;SDS011;48134;53.586;10.610;2024-02-15T05:44:23;30.33;;;10.70;;
62149;SDS011;48134;53.586;10.610;2024-02-15T05:46:57;32.33;;;11.35;;
62149;SDS011;48134;53.586;10.610;2024-02-15T05:49:30;28.52;;;10.90;;
62149;SDS011;48134;53.586;10.610;2024-02-15T05:52:05;31.17;;;10.55;;
62149;SDS011;48134;53.586;10.610;2024-02-15T05:54:33;32.37;;;11.27;;
62149;SDS011;48134;53.586;10.610;2024-02-15T05:57:01;30.65;;;10.73;;
62149;SDS011;48134;53.586;10.610;2024-02-15T05:59:36;30.65;;;11.38;;
62149;SDS011;48134;53.586;10.610;2024-02-15T06:02:04;31.40;;;10.55;;
62149;SDS011;48134;53.586;10.610;2024-02-15T06:04:38;31.30;;;10.82;;
62149;SDS011;48134;53.586;10.610;2024-02-15T06:07:10;32.53;;;10.93;;
62149;SDS011;48134;53.586;10.610;2024-02-15T06:09:43;32.90;;;10.85;;
62149;SDS011;48134;53.586;10.610;2024-02-15T06:12:16;27.77;;;10.57;;
62149;SDS011;48134;53.586;10.610;2024-02-15T06:14:51;29.15;;;10.68;;
62149;SDS011;48134;53.586;10.610;2024-02-15T06:17:19;31.43;;;11.00;;
62149;SDS011;48134;53.586;10.610;2024-02-15T06:19:47;28.48;;;10.20;;
62149;SDS011;48134;53.586;10.610;2024-02-15T06:22:20;33.90;;;11.57;;
62149;SDS011;48134;53.586;10.610;2024-02-15T06:24:49;31.35;;;11.25;;
62149;SDS011;48134;53.586;10.610;2024-02-15T06:27:17;36.33;;;12.05;;
62149;SDS011;48134;53.586;10.610;2024-02-15T06:29:52;31.63;;;11.55;;
62149;SDS011;48134;53.586;10.610;2024-02-15T06:32:43;36.63;;;12.35;;
62149;SDS011;48134;53.586;10.610;2024-02-15T06:35:34;33.90;;;12.35;;
62149;SDS011;48134;53.586;10.610;2024-02-15T06:38:20;32.95;;;11.30;;
62149;SDS011;48134;53.586;10.610;2024-02-15T06:41:10;35.80;;;12.07;;
62149;SDS011;48134;53.586;10.610;2024-02-15T06:43:45;32.45;;;11.77;;
62149;SDS011;48134;53.586;10.610;2024-02-15T06:46:19;36.65;;;12.18;;
62149;SDS011;48134;53.586;10.610;2024-02-15T06:48:53;39.93;;;12.53;;
62149;SDS011;48134;53.586;10.610;2024-02-15T06:51:26;37.60;;;12.15;;
62149;SDS011;48134;53.586;10.610;2024-02-15T06:53:59;34.83;;;11.57;;
62149;SDS011;48134;53.586;10.610;2024-02-15T06:56:35;35.57;;;12.07;;
62149;SDS011;48134;53.586;10.610;2024-02-15T06:59:10;34.30;;;11.82;;
62149;SDS011;48134;53.586;10.610;2024-02-15T07:01:47;34.22;;;11.20;;
62149;SDS011;48134;53.586;10.610;2024-02-15T07:04:20;37.42;;;11.68;;
62149;SDS011;48134;53.586;10.610;2024-02-15T07:06:57;33.03;;;11.57;;
62149;SDS011;48134;53.586;10.610;2024-02-15T07:09:31;35.25;;;11.63;;
62149;SDS011;48134;53.586;10.610;2024-02-15T07:12:04;36.15;;;11.85;;
62149;SDS011;48134;53.586;10.610;2024-02-15T07:14:38;32.97;;;11.07;;
62149;SDS011;48134;53.586;10.610;2024-02-15T07:17:13;34.75;;;11.82;;
62149;SDS011;48134;53.586;10.610;2024-02-15T07:19:47;36.58;;;11.75;;
62149;SDS011;48134;53.586;10.610;2024-02-15T07:22:21;36.85;;;11.35;;
62149;SDS011;48134;53.586;10.610;2024-02-15T07:24:54;34.85;;;12.18;;
62149;SDS011;48134;53.586;10.610;2024-02-15T07:27:23;34.63;;;11.55;;
62149;SDS011;48134;53.586;10.610;2024-02-15T07:29:52;38.65;;;11.88;;
62149;SDS011;48134;53.586;10.610;2024-02-15T07:32:27;35.65;;;11.88;;
62149;SDS011;48134;53.586;10.610;2024-02-15T07:34:55;37.10;;;12.13;;
62149;SDS011;48134;53.586;10.610;2024-02-15T07:37:24;34.17;;;11.48;;
62149;SDS011;48134;53.586;10.610;2024-02-15T07:39:57;35.50;;;12.10;;
62149;SDS011;48134;53.586;10.610;2024-02-15T07:42:31;39.20;;;12.57;;
62149;SDS011;48134;53.586;10.610;2024-02-15T07:45:04;33.97;;;11.95;;
62149;SDS011;48134;53.586;10.610;2024-02-15T07:47:40;36.87;;;12.07;;
62149;SDS011;48134;53.586;10.610;2024-02-15T07:50:08;34.53;;;11.57;;
62149;SDS011;48134;53.586;10.610;2024-02-15T07:52:42;39.13;;;11.60;;
62149;SDS011;48134;53.586;10.610;2024-02-15T07:55:15;32.07;;;11.63;;
62149;SDS011;48134;53.586;10.610;2024-02-15T07:57:48;34.55;;;11.88;;
62149;SDS011;48134;53.586;10.610;2024-02-15T08:00:21;36.28;;;11.93;;
62149;SDS011;48134;53.586;10.610;2024-02-15T08:02:56;36.60;;;12.27;;
62149;SDS011;48134;53.586;10.610;2024-02-15T08:05:25;32.85;;;11.68;;
62149;SDS011;48134;53.586;10.610;2024-02-15T08:07:59;34.42;;;11.65;;
62149;SDS011;48134;53.586;10.610;2024-02-15T08:10:27;31.85;;;11.82;;
62149;SDS011;48134;53.586;10.610;2024-02-15T08:13:00;32.00;;;11.63;;
62149;SDS011;48134;53.586;10.610;2024-02-15T08:15:33;34.58;;;11.57;;
62149;SDS011;48134;53.586;10.610;2024-02-15T08:18:08;31.90;;;11.70;;
62149;SDS011;48134;53.586;10.610;2024-02-15T08:20:44;33.05;;;11.70;;
62149;SDS011;48134;53.586;10.610;2024-02-15T08:23:18;31.85;;;10.88;;
62149;SDS011;48134;53.586;10.610;2024-02-15T08:25:46;31.35;;;11.23;;
62149;SDS011;48134;53.586;10.610;2024-02-15T08:28:14;34.92;;;11.55;;
62149;SDS011;48134;53.586;10.610;2024-02-15T08:30:47;29.97;;;11.37;;
62149;SDS011;48134;53.586;10.610;2024-02-15T08:33:22;38.35;;;16.60;;
62149;SDS011;48134;53.586;10.610;2024-02-15T08:35:51;33.60;;;11.65;;
62149;SDS011;48134;53.586;10.610;2024-02-15T08:38:21;31.27;;;10.95;;
62149;SDS011;48134;53.586;10.610;2024-02-15T08:40:55;31.77;;;11.15;;
62149;SDS011;48134;53.586;10.610;2024-02-15T08:43:28;29.52;;;10.63;;
62149;SDS011;48134;53.586;10.610;2024-02-15T08:46:01;29.42;;;11.35;;
62149;SDS011;48134;53.586;10.610;2024-02-15T08:48:30;33.15;;;11.20;;
62149;SDS011;48134;53.586;10.610;2024-02-15T08:50:59;30.43;;;11.20;;
62149;SDS011;48134;53.586;10.610;2024-02-15T08:53:27;28.40;;;10.77;;
62149;SDS011;48134;53.586;10.610;2024-02-15T08:56:00;27.00;;;11.10;;
62149;SDS011;48134;53.586;10.610;2024-02-15T08:58:34;29.83;;;10.50;;
62149;SDS011;48134;53.586;10.610;2024-02-15T09:01:03;28.00;;;10.70;;
62149;SDS011;48134;53.586;10.610;2024-02-15T09:03:32;29.50;;;9.93;;
62149;SDS011;48134;53.586;10.610;2024-02-15T09:06:06;29.30;;;10.55;;
62149;SDS011;48134;53.586;10.610;2024-02-15T09:08:34;26.48;;;10.32;;
62149;SDS011;48134;53.586;10.610;2024-02-15T09:11:07;22.67;;;9.53;;
62149;SDS011;48134;53.586;10.610;2024-02-15T09:13:43;26.45;;;9.68;;
62149;SDS011;48134;53.586;10.610;2024-02-15T09:16:17;25.08;;;9.90;;
62149;SDS011;48134;53.586;10.610;2024-02-15T09:18:54;25.40;;;10.07;;
62149;SDS011;48134;53.586;10.610;2024-02-15T09:21:22;24.23;;;9.13;;
62149;SDS011;48134;53.586;10.610;2024-02-15T09:23:57;22.77;;;9.30;;
62149;SDS011;48134;53.586;10.610;2024-02-15T09:26:25;21.20;;;9.07;;
62149;SDS011;48134;53.586;10.610;2024-02-15T09:28:54;22.08;;;9.45;;
62149;SDS011;48134;53.586;10.610;2024-02-15T09:31:28;23.58;;;9.70;;
62149;SDS011;48134;53.586;10.610;2024-02-15T09:34:02;22.30;;;9.47;;
62149;SDS011;48134;53.586;10.610;2024-02-15T09:36:37;23.83;;;9.88;;
62149;SDS011;48134;53.586;10.610;2024-02-15T09:39:11;20.73;;;8.83;;
62149;SDS011;48134;53.586;10.610;2024-02-15T09:41:45;22.45;;;8.27;;
62149;SDS011;48134;53.586;10.610;2024-02-15T09:44:25;20.47;;;8.87;;
62149;SDS011;48134;53.586;10.610;2024-02-15T09:46:57;20.48;;;8.70;;
62149;SDS011;48134;53.586;10.610;2024-02-15T09:49:38;21.42;;;8.77;;
62149;SDS011;48134;53.586;10.610;2024-02-15T09:52:08;21.40;;;8.48;;
62149;SDS011;48134;53.586;10.610;2024-02-15T09:54:43;17.52;;;8.07;;
62149;SDS011;48134;53.586;10.610;2024-02-15T09:57:17;20.80;;;8.00;;
62149;SDS011;48134;53.586;10.610;2024-02-15T09:59:52;17.27;;;7.95;;
62149;SDS011;48134;53.586;10.610;2024-02-15T10:02:25;16.55;;;7.55;;
62149;SDS011;48134;53.586;10.610;2024-02-15T10:05:00;18.83;;;7.57;;
62149;SDS011;48134;53.586;10.610;2024-02-15T10:07:28;16.48;;;7.30;;
62149;SDS011;48134;53.586;10.610;2024-02-15T10:09:57;18.10;;;7.57;;
62149;SDS011;48134;53.586;10.610;2024-02-15T10:12:48;17.08;;;7.53;;
62149;SDS011;48134;53.586;10.610;2024-02-15T10:15:26;16.52;;;7.50;;
62149;SDS011;48134;53.586;10.610;2024-02-15T10:17:57;18.48;;;7.43;;
62149;SDS011;48134;53.586;10.610;2024-02-15T10:20:33;16.67;;;7.85;;
62149;SDS011;48134;53.586;10.610;2024-02-15T10:23:09;17.10;;;7.78;;
62149;SDS011;48134;53.586;10.610;2024-02-15T10:25:43;16.67;;;7.97;;
62149;SDS011;48134;53.586;10.610;2024-02-15T10:28:20;15.20;;;7.53;;
62149;SDS011;48134;53.586;10.610;2024-02-15T10:30:55;14.38;;;7.32;;
62149;SDS011;48134;53.586;10.610;2024-02-15T10:33:28;14.97;;;7.30;;
62149;SDS011;48134;53.586;10.610;2024-02-15T10:36:06;14.97;;;7.90;;
62149;SDS011;48134;53.586;10.610;2024-02-15T10:38:36;18.33;;;7.95;;
62149;SDS011;48134;53.586;10.610;2024-02-15T10:41:09;14.98;;;7.90;;
62149;SDS011;48134;53.586;10.610;2024-02-15T10:43:43;16.00;;;7.38;;
62149;SDS011;48134;53.586;10.610;2024-02-15T10:46:19;17.85;;;7.70;;
62149;SDS011;48134;53.586;10.610;2024-02-15T10:48:53;17.50;;;8.18;;
62149;SDS011;48134;53.586;10.610;2024-02-15T10:51:22;17.13;;;7.70;;
62149;SDS011;48134;53.586;10.610;2024-02-15T10:53:57;16.65;;;8.02;;
62149;SDS011;48134;53.586;10.610;2024-02-15T10:56:36;18.27;;;8.18;;
62149;SDS011;48134;53.586;10.610;2024-02-15T10:59:10;16.35;;;7.72;;
62149;SDS011;48134;53.586;10.610;2024-02-15T11:01:49;16.05;;;8.48;;
62149;SDS011;48134;53.586;10.610;2024-02-15T11:04:27;17.50;;;8.70;;
62149;SDS011;48134;53.586;10.610;2024-02-15T11:07:09;20.17;;;9.48;;
62149;SDS011;48134;53.586;10.610;2024-02-15T11:09:45;19.83;;;10.00;;
62149;SDS011;48134;53.586;10.610;2024-02-15T11:12:13;21.10;;;9.40;;
62149;SDS011;48134;53.586;10.610;2024-02-15T11:14:44;21.48;;;10.05;;
62149;SDS011;48134;53.586;10.610;2024-02-15T11:23:27;23.52;;;10.45;;
62149;SDS011;48134;53.586;10.610;2024-02-15T11:26:02;27.63;;;10.82;;
62149;SDS011;48134;53.586;10.610;2024-02-15T11:28:39;27.50;;;11.10;;
62149;SDS011;48134;53.586;10.610;2024-02-15T11:31:08;24.17;;;11.10;;
62149;SDS011;48134;53.586;10.610;2024-02-15T11:33:39;21.30;;;11.23;;
62149;SDS011;48134;53.586;10.610;2024-02-15T11:36:12;26.05;;;11.38;;
62149;SDS011;48134;53.586;10.610;2024-02-15T11:38:42;26.47;;;12.20;;
62149;SDS011;48134;53.586;10.610;2024-02-15T11:41:17;25.27;;;11.70;;
62149;SDS011;48134;53.586;10.610;2024-02-15T11:43:52;27.55;;;12.20;;
62149;SDS011;48134;53.586;10.610;2024-02-15T11:46:25;27.40;;;11.90;;
62149;SDS011;48134;53.586;10.610;2024-02-15T11:48:57;26.17;;;12.40;;
62149;SDS011;48134;53.586;10.610;2024-02-15T11:51:32;26.83;;;12.57;;
62149;SDS011;48134;53.586;10.610;2024-02-15T11:54:05;24.93;;;12.40;;
62149;SDS011;48134;53.586;10.610;2024-02-15T11:56:54;28.73;;;12.85;;
62149;SDS011;48134;53.586;10.610;2024-02-15T11:59:40;27.15;;;12.65;;
62149;SDS011;48134;53.586;10.610;2024-02-15T12:02:25;31.63;;;13.17;;
62149;SDS011;48134;53.586;10.610;2024-02-15T12:05:11;26.77;;;12.82;;
62149;SDS011;48134;53.586;10.610;2024-02-15T12:07:55;30.27;;;13.38;;
62149;SDS011;48134;53.586;10.610;2024-02-15T12:10:42;27.45;;;12.77;;
62149;SDS011;48134;53.586;10.610;2024-02-15T12:13:28;29.33;;;13.65;;
62149;SDS011;48134;53.586;10.610;2024-02-15T12:16:19;26.90;;;12.98;;
62149;SDS011;48134;53.586;10.610;2024-02-15T12:19:10;27.15;;;12.73;;
62149;SDS011;48134;53.586;10.610;2024-02-15T12:21:43;25.53;;;12.67;;
62149;SDS011;48134;53.586;10.610;2024-02-15T12:24:17;26.52;;;13.35;;
62149;SDS011;48134;53.586;10.610;2024-02-15T12:26:49;26.50;;;13.30;;
62149;SDS011;48134;53.586;10.610;2024-02-15T12:29:22;26.10;;;13.30;;
62149;SDS011;48134;53.586;10.610;2024-02-15T12:31:56;27.20;;;13.88;;
62149;SDS011;48134;53.586;10.610;2024-02-15T12:34:24;30.85;;;13.40;;
62149;SDS011;48134;53.586;10.610;2024-02-15T12:37:07;32.70;;;15.25;;
62149;SDS011;48134;53.586;10.610;2024-02-15T12:39:41;30.83;;;14.55;;
62149;SDS011;48134;53.586;10.610;2024-02-15T12:42:16;31.63;;;15.02;;
62149;SDS011;48134;53.586;10.610;2024-02-15T12:44:51;31.25;;;14.80;;
62149;SDS011;48134;53.586;10.610;2024-02-15T12:47:24;29.33;;;14.48;;
62149;SDS011;48134;53.586;10.610;2024-02-15T12:49:54;31.67;;;14.75;;
62149;SDS011;48134;53.586;10.610;2024-02-15T12:52:34;34.13;;;14.90;;
62149;SDS011;48134;53.586;10.610;2024-02-15T12:55:13;31.02;;;15.23;;
62149;SDS011;48134;53.586;10.610;2024-02-15T12:57:44;33.58;;;15.10;;
62149;SDS011;48134;53.586;10.610;2024-02-15T13:00:23;33.40;;;15.63;;
62149;SDS011;48134;53.586;10.610;2024-02-15T13:03:01;30.73;;;15.55;;
62149;SDS011;48134;53.586;10.610;2024-02-15T13:05:36;31.13;;;15.18;;
62149;SDS011;48134;53.586;10.610;2024-02-15T13:08:10;29.70;;;15.30;;
62149;SDS011;48134;53.586;10.610;2024-02-15T13:10:45;31.60;;;15.57;;
62149;SDS011;48134;53.586;10.610;2024-02-15T13:13:20;31.92;;;14.95;;
62149;SDS011;48134;53.586;10.610;2024-02-15T13:15:49;30.30;;;15.48;;
62149;SDS011;48134;53.586;10.610;2024-02-15T13:18:19;31.33;;;16.30;;
62149;SDS011;48134;53.586;10.610;2024-02-15T13:20:48;33.33;;;15.93;;
62149;SDS011;48134;53.586;10.610;2024-02-15T13:23:24;33.35;;;15.57;;
62149;SDS011;48134;53.586;10.610;2024-02-15T13:25:52;31.40;;;14.87;;
62149;SDS011;48134;53.586;10.610;2024-02-15T13:28:24;30.88;;;14.68;;
62149;SDS011;48134;53.586;10.610;2024-02-15T13:30:58;32.28;;;14.77;;
62149;SDS011;48134;53.586;10.610;2024-02-15T13:33:26;27.65;;;14.10;;
62149;SDS011;48134;53.586;10.610;2024-02-15T13:35:58;29.93;;;13.77;;
62149;SDS011;48134;53.586;10.610;2024-02-15T13:38:31;31.30;;;14.40;;
62149;SDS011;48134;53.586;10.610;2024-02-15T13:40:59;32.72;;;15.02;;
62149;SDS011;48134;53.586;10.610;2024-02-15T13:43:36;29.48;;;14.55;;
62149;SDS011;48134;53.586;10.610;2024-02-15T13:46:10;28.60;;;14.20;;
62149;SDS011;48134;53.586;10.610;2024-02-15T13:48:39;29.83;;;14.55;;
62149;SDS011;48134;53.586;10.610;2024-02-15T13:51:12;29.45;;;13.73;;
62149;SDS011;48134;53.586;10.610;2024-02-15T13:53:41;25.77;;;13.70;;
62149;SDS011;48134;53.586;10.610;2024-02-15T13:56:15;26.50;;;12.98;;
62149;SDS011;48134;53.586;10.610;2024-02-15T13:58:44;27.85;;;14.13;;
62149;SDS011;48134;53.586;10.610;2024-02-15T14:01:17;24.23;;;12.23;;
62149;SDS011;48134;53.586;10.610;2024-02-15T14:03:51;25.55;;;12.85;;
62149;SDS011;48134;53.586;10.610;2024-02-15T14:06:24;21.47;;;11.80;;
62149;SDS011;48134;53.586;10.610;2024-02-15T14:08:57;20.50;;;11.18;;
62149;SDS011;48134;53.586;10.610;2024-02-15T14:11:30;21.20;;;11.13;;
62149;SDS011;48134;53.586;10.610;2024-02-15T14:14:05;20.63;;;11.32;;
62149;SDS011;48134;53.586;10.610;2024-02-15T14:16:33;19.85;;;10.52;;
62149;SDS011;48134;53.586;10.610;2024-02-15T14:19:06;18.30;;;9.88;;
62149;SDS011;48134;53.586;10.610;2024-02-15T14:21:35;19.55;;;9.57;;
62149;SDS011;48134;53.586;10.610;2024-02-15T14:24:10;16.92;;;9.13;;
62149;SDS011;48134;53.586;10.610;2024-02-15T14:26:45;17.20;;;8.55;;
62149;SDS011;48134;53.586;10.610;2024-02-15T14:29:19;15.85;;;8.18;;
62149;SDS011;48134;53.586;10.610;2024-02-15T14:31:54;14.20;;;7.63;;
62149;SDS011;48134;53.586;10.610;2024-02-15T14:34:40;14.45;;;7.10;;
62149;SDS011;48134;53.586;10.610;2024-02-15T14:37:14;14.15;;;6.85;;
62149;SDS011;48134;53.586;10.610;2024-02-15T14:39:48;13.18;;;7.00;;
62149;SDS011;48134;53.586;10.610;2024-02-15T14:42:16;12.15;;;6.50;;
62149;SDS011;48134;53.586;10.610;2024-02-15T14:44:51;12.30;;;6.30;;
62149;SDS011;48134;53.586;10.610;2024-02-15T14:47:24;11.57;;;6.13;;
62149;SDS011;48134;53.586;10.610;2024-02-15T14:49:53;10.40;;;6.13;;
62149;SDS011;48134;53.586;10.610;2024-02-15T14:52:27;11.35;;;6.35;;
62149;SDS011;48134;53.586;10.610;2024-02-15T14:55:00;17.45;;;8.48;;